sensor_id;sensor_type;location;lat;lon;timestamp;P1;durP1;ratioP1;P2;durP2;ratioP2
17133;SDS011;8682;52.120;5.252;2022-12-07T00:00:20;1999.90;;;999.90;;
17133;SDS011;8682;52.120;5.252;2022-12-07T00:02:47;1999.90;;;999.90;;
17133;SDS011;8682;52.120;5.252;2022-12-07T00:05:14;1999.90;;;999.90;;
17133;SDS011;8682;52.120;5.252;2022-12-07T00:07:44;1999.90;;;999.90;;
17133;SDS011;8682;52.120;5.252;2022-12-07T00:10:11;1999.90;;;999.90;;
17133;SDS011;8682;52.120;5.252;2022-12-07T00:12:40;1999.90;;;999.90;;
17133;SDS011;8682;52.120;5.252;2022-12-07T00:15:07;1999.90;;;999.90;;
17133;SDS011;8682;52.120;5.252;2022-12-07T00:17:34;1999.90;;;999.90;;
17133;SDS011;8682;52.120;5.252;2022-12-07T00:20:02;1999.90;;;999.90;;
17133;SDS011;8682;52.120;5.252;2022-12-07T00:22:29;1999.90;;;999.90;;
17133;SDS011;8682;52.120;5.252;2022-12-07T00:24:56;1999.90;;;999.90;;
17133;SDS011;8682;52.120;5.252;2022-12-07T00:27:24;1999.90;;;999.90;;
17133;SDS011;8682;52.120;5.252;2022-12-07T00:29:52;1999.90;;;999.90;;
17133;SDS011;8682;52.120;5.252;2022-12-07T00:32:19;1627.93;;;667.33;;
17133;SDS011;8682;52.120;5.252;2022-12-07T00:34:46;1999.90;;;999.90;;
17133;SDS011;8682;52.120;5.252;2022-12-07T00:37:14;1999.90;;;999.90;;
17133;SDS011;8682;52.120;5.252;2022-12-07T00:39:41;1999.90;;;999.90;;
17133;SDS011;8682;52.120;5.252;2022-12-07T00:42:08;1999.90;;;999.90;;
17133;SDS011;8682;52.120;5.252;2022-12-07T00:44:35;1999.90;;;999.90;;
17133;SDS011;8682;52.120;5.252;2022-12-07T00:47:04;1999.90;;;999.90;;
17133;SDS011;8682;52.120;5.252;2022-12-07T00:49:31;1999.90;;;999.90;;
17133;SDS011;8682;52.120;5.252;2022-12-07T00:51:58;1999.90;;;999.90;;
17133;SDS011;8682;52.120;5.252;2022-12-07T00:54:25;1999.90;;;999.90;;
17133;SDS011;8682;52.120;5.252;2022-12-07T00:56:52;1999.90;;;999.90;;
17133;SDS011;8682;52.120;5.252;2022-12-07T00:59:20;1999.90;;;999.90;;
17133;SDS011;8682;52.120;5.252;2022-12-07T01:01:47;1999.90;;;999.90;;
17133;SDS011;8682;52.120;5.252;2022-12-07T01:04:15;1999.90;;;999.90;;
17133;SDS011;8682;52.120;5.252;2022-12-07T01:06:43;1999.90;;;999.90;;
17133;SDS011;8682;52.120;5.252;2022-12-07T01:09:10;1659.53;;;717.87;;
17133;SDS011;8682;52.120;5.252;2022-12-07T01:11:37;1999.90;;;999.90;;
17133;SDS011;8682;52.120;5.252;2022-12-07T01:14:04;1999.90;;;999.90;;
17133;SDS011;8682;52.120;5.252;2022-12-07T01:16:32;1641.70;;;703.17;;
17133;SDS011;8682;52.120;5.252;2022-12-07T01:18:59;1690.50;;;708.20;;
17133;SDS011;8682;52.120;5.252;2022-12-07T01:21:31;1622.70;;;686.47;;
17133;SDS011;8682;52.120;5.252;2022-12-07T01:24:00;1999.90;;;999.90;;
17133;SDS011;8682;52.120;5.252;2022-12-07T01:26:27;1597.37;;;700.67;;
17133;SDS011;8682;52.120;5.252;2022-12-07T01:28:54;1999.90;;;999.90;;
17133;SDS011;8682;52.120;5.252;2022-12-07T01:31:24;1640.40;;;698.70;;
17133;SDS011;8682;52.120;5.252;2022-12-07T01:33:53;1999.90;;;999.90;;
17133;SDS011;8682;52.120;5.252;2022-12-07T01:36:21;1999.90;;;999.90;;
17133;SDS011;8682;52.120;5.252;2022-12-07T01:38:51;1999.90;;;999.90;;
17133;SDS011;8682;52.120;5.252;2022-12-07T01:41:18;1999.90;;;999.90;;
17133;SDS011;8682;52.120;5.252;2022-12-07T01:46:32;1540.97;;;673.50;;
17133;SDS011;8682;52.120;5.252;2022-12-07T01:48:59;1582.17;;;689.67;;
17133;SDS011;8682;52.120;5.252;2022-12-07T01:51:27;1999.90;;;999.90;;
17133;SDS011;8682;52.120;5.252;2022-12-07T01:53:56;1605.10;;;687.50;;
17133;SDS011;8682;52.120;5.252;2022-12-07T01:56:24;1573.93;;;712.80;;
17133;SDS011;8682;52.120;5.252;2022-12-07T01:58:53;1506.13;;;675.13;;
17133;SDS011;8682;52.120;5.252;2022-12-07T02:01:21;1494.17;;;681.87;;
17133;SDS011;8682;52.120;5.252;2022-12-07T02:03:48;1384.77;;;622.00;;
17133;SDS011;8682;52.120;5.252;2022-12-07T02:06:16;1083.87;;;429.40;;
17133;SDS011;8682;52.120;5.252;2022-12-07T02:08:45;1999.90;;;999.90;;
17133;SDS011;8682;52.120;5.252;2022-12-07T02:11:14;1243.17;;;486.30;;
17133;SDS011;8682;52.120;5.252;2022-12-07T02:13:42;1468.97;;;670.00;;
17133;SDS011;8682;52.120;5.252;2022-12-07T02:16:13;1569.27;;;674.70;;
17133;SDS011;8682;52.120;5.252;2022-12-07T02:18:45;1999.90;;;999.90;;
17133;SDS011;8682;52.120;5.252;2022-12-07T02:21:17;1999.90;;;999.90;;
17133;SDS011;8682;52.120;5.252;2022-12-07T02:24:03;1999.90;;;999.90;;
17133;SDS011;8682;52.120;5.252;2022-12-07T02:26:54;1999.90;;;999.90;;
17133;SDS011;8682;52.120;5.252;2022-12-07T02:29:26;1999.90;;;999.90;;
17133;SDS011;8682;52.120;5.252;2022-12-07T02:31:56;1999.90;;;999.90;;
17133;SDS011;8682;52.120;5.252;2022-12-07T02:34:29;1999.90;;;999.90;;
17133;SDS011;8682;52.120;5.252;2022-12-07T02:37:00;1999.90;;;999.90;;
17133;SDS011;8682;52.120;5.252;2022-12-07T02:39:29;1999.90;;;999.90;;
17133;SDS011;8682;52.120;5.252;2022-12-07T02:41:58;1999.90;;;999.90;;
17133;SDS011;8682;52.120;5.252;2022-12-07T02:44:29;1999.90;;;999.90;;
17133;SDS011;8682;52.120;5.252;2022-12-07T02:46:58;1999.90;;;999.90;;
17133;SDS011;8682;52.120;5.252;2022-12-07T02:49:26;1999.90;;;999.90;;
17133;SDS011;8682;52.120;5.252;2022-12-07T02:51:54;1999.90;;;999.90;;
17133;SDS011;8682;52.120;5.252;2022-12-07T02:54:21;1999.90;;;999.90;;
17133;SDS011;8682;52.120;5.252;2022-12-07T02:56:49;1999.90;;;999.90;;
17133;SDS011;8682;52.120;5.252;2022-12-07T02:59:19;1999.90;;;999.90;;
17133;SDS011;8682;52.120;5.252;2022-12-07T03:01:50;1999.90;;;999.90;;
17133;SDS011;8682;52.120;5.252;2022-12-07T03:04:27;1999.90;;;999.90;;
17133;SDS011;8682;52.120;5.252;2022-12-07T03:07:00;1999.90;;;999.90;;
17133;SDS011;8682;52.120;5.252;2022-12-07T03:09:31;1999.90;;;999.90;;
17133;SDS011;8682;52.120;5.252;2022-12-07T03:12:00;1999.90;;;999.90;;
17133;SDS011;8682;52.120;5.252;2022-12-07T03:14:29;1999.90;;;999.90;;
17133;SDS011;8682;52.120;5.252;2022-12-07T03:17:00;1560.30;;;631.43;;
17133;SDS011;8682;52.120;5.252;2022-12-07T03:19:29;1999.90;;;999.90;;
17133;SDS011;8682;52.120;5.252;2022-12-07T03:21:59;1999.90;;;999.90;;
17133;SDS011;8682;52.120;5.252;2022-12-07T03:24:29;1999.90;;;999.90;;
17133;SDS011;8682;52.120;5.252;2022-12-07T03:26:59;1999.90;;;999.90;;
17133;SDS011;8682;52.120;5.252;2022-12-07T03:29:31;1999.90;;;999.90;;
17133;SDS011;8682;52.120;5.252;2022-12-07T03:32:02;1999.90;;;999.90;;
17133;SDS011;8682;52.120;5.252;2022-12-07T03:34:32;1999.90;;;999.90;;
17133;SDS011;8682;52.120;5.252;2022-12-07T03:37:02;1999.90;;;999.90;;
17133;SDS011;8682;52.120;5.252;2022-12-07T03:39:33;1999.90;;;999.90;;
17133;SDS011;8682;52.120;5.252;2022-12-07T03:42:03;1999.90;;;999.90;;
17133;SDS011;8682;52.120;5.252;2022-12-07T03:44:31;1999.90;;;999.90;;
17133;SDS011;8682;52.120;5.252;2022-12-07T03:46:59;1999.90;;;999.90;;
17133;SDS011;8682;52.120;5.252;2022-12-07T03:49:31;1999.90;;;999.90;;
17133;SDS011;8682;52.120;5.252;2022-12-07T03:52:00;1999.90;;;999.90;;
17133;SDS011;8682;52.120;5.252;2022-12-07T03:54:29;1999.90;;;999.90;;
17133;SDS011;8682;52.120;5.252;2022-12-07T03:56:58;1999.90;;;999.90;;
17133;SDS011;8682;52.120;5.252;2022-12-07T03:59:27;1999.90;;;999.90;;
17133;SDS011;8682;52.120;5.252;2022-12-07T04:01:55;1999.90;;;999.90;;
17133;SDS011;8682;52.120;5.252;2022-12-07T04:04:23;1999.90;;;999.90;;
17133;SDS011;8682;52.120;5.252;2022-12-07T04:06:52;1999.90;;;999.90;;
17133;SDS011;8682;52.120;5.252;2022-12-07T04:09:20;1999.90;;;999.90;;
17133;SDS011;8682;52.120;5.252;2022-12-07T04:11:47;1999.90;;;999.90;;
17133;SDS011;8682;52.120;5.252;2022-12-07T04:14:14;1999.90;;;999.90;;
17133;SDS011;8682;52.120;5.252;2022-12-07T04:16:44;1999.90;;;999.90;;
17133;SDS011;8682;52.120;5.252;2022-12-07T04:19:11;1999.90;;;999.90;;
17133;SDS011;8682;52.120;5.252;2022-12-07T04:21:38;1999.90;;;999.90;;
17133;SDS011;8682;52.120;5.252;2022-12-07T04:24:07;1999.90;;;999.90;;
17133;SDS011;8682;52.120;5.252;2022-12-07T04:26:34;1999.90;;;999.90;;
17133;SDS011;8682;52.120;5.252;2022-12-07T04:29:01;1999.90;;;999.90;;
17133;SDS011;8682;52.120;5.252;2022-12-07T04:31:29;1999.90;;;999.90;;
17133;SDS011;8682;52.120;5.252;2022-12-07T04:33:56;1999.90;;;999.90;;
17133;SDS011;8682;52.120;5.252;2022-12-07T04:36:23;1741.37;;;729.77;;
17133;SDS011;8682;52.120;5.252;2022-12-07T04:38:52;1999.90;;;999.90;;
17133;SDS011;8682;52.120;5.252;2022-12-07T04:41:21;1753.07;;;726.70;;
17133;SDS011;8682;52.120;5.252;2022-12-07T04:43:52;1743.07;;;740.53;;
17133;SDS011;8682;52.120;5.252;2022-12-07T04:46:19;1591.30;;;683.60;;
17133;SDS011;8682;52.120;5.252;2022-12-07T04:48:46;1999.90;;;999.90;;
17133;SDS011;8682;52.120;5.252;2022-12-07T04:51:13;1999.90;;;999.90;;
17133;SDS011;8682;52.120;5.252;2022-12-07T04:53:41;1999.90;;;999.90;;
17133;SDS011;8682;52.120;5.252;2022-12-07T04:56:08;1999.90;;;999.90;;
17133;SDS011;8682;52.120;5.252;2022-12-07T04:58:37;1999.90;;;999.90;;
17133;SDS011;8682;52.120;5.252;2022-12-07T05:01:04;1999.90;;;999.90;;
17133;SDS011;8682;52.120;5.252;2022-12-07T05:03:31;1999.90;;;999.90;;
17133;SDS011;8682;52.120;5.252;2022-12-07T05:05:58;1999.90;;;999.90;;
17133;SDS011;8682;52.120;5.252;2022-12-07T05:08:25;1999.90;;;999.90;;
17133;SDS011;8682;52.120;5.252;2022-12-07T05:10:52;1999.90;;;999.90;;
17133;SDS011;8682;52.120;5.252;2022-12-07T05:13:19;1999.90;;;999.90;;
17133;SDS011;8682;52.120;5.252;2022-12-07T05:15:48;1999.90;;;999.90;;
17133;SDS011;8682;52.120;5.252;2022-12-07T05:18:15;1999.90;;;999.90;;
17133;SDS011;8682;52.120;5.252;2022-12-07T05:20:43;1999.90;;;999.90;;
17133;SDS011;8682;52.120;5.252;2022-12-07T05:23:11;1999.90;;;999.90;;
17133;SDS011;8682;52.120;5.252;2022-12-07T05:25:38;1999.90;;;999.90;;
17133;SDS011;8682;52.120;5.252;2022-12-07T05:28:05;1999.90;;;999.90;;
17133;SDS011;8682;52.120;5.252;2022-12-07T05:30:33;1999.90;;;999.90;;
17133;SDS011;8682;52.120;5.252;2022-12-07T05:33:01;1999.90;;;999.90;;
17133;SDS011;8682;52.120;5.252;2022-12-07T05:35:30;1999.90;;;999.90;;
17133;SDS011;8682;52.120;5.252;2022-12-07T05:37:57;1999.90;;;999.90;;
17133;SDS011;8682;52.120;5.252;2022-12-07T05:40:24;1999.90;;;999.90;;
17133;SDS011;8682;52.120;5.252;2022-12-07T05:42:51;1999.90;;;999.90;;
17133;SDS011;8682;52.120;5.252;2022-12-07T05:45:18;1999.90;;;999.90;;
17133;SDS011;8682;52.120;5.252;2022-12-07T05:47:46;1999.90;;;999.90;;
17133;SDS011;8682;52.120;5.252;2022-12-07T05:50:15;1999.90;;;999.90;;
17133;SDS011;8682;52.120;5.252;2022-12-07T05:52:42;1999.90;;;999.90;;
17133;SDS011;8682;52.120;5.252;2022-12-07T05:55:09;1999.90;;;999.90;;
17133;SDS011;8682;52.120;5.252;2022-12-07T05:57:36;1999.90;;;999.90;;
17133;SDS011;8682;52.120;5.252;2022-12-07T06:00:03;1999.90;;;999.90;;
17133;SDS011;8682;52.120;5.252;2022-12-07T06:02:30;1999.90;;;999.90;;
17133;SDS011;8682;52.120;5.252;2022-12-07T06:04:57;1999.90;;;999.90;;
17133;SDS011;8682;52.120;5.252;2022-12-07T06:07:26;1999.90;;;999.90;;
17133;SDS011;8682;52.120;5.252;2022-12-07T06:09:53;1999.90;;;999.90;;
17133;SDS011;8682;52.120;5.252;2022-12-07T06:12:20;1999.90;;;999.90;;
17133;SDS011;8682;52.120;5.252;2022-12-07T06:14:58;1999.90;;;999.90;;
17133;SDS011;8682;52.120;5.252;2022-12-07T06:17:25;1999.90;;;999.90;;
17133;SDS011;8682;52.120;5.252;2022-12-07T06:19:53;1999.90;;;999.90;;
17133;SDS011;8682;52.120;5.252;2022-12-07T06:22:20;1999.90;;;999.90;;
17133;SDS011;8682;52.120;5.252;2022-12-07T06:24:48;1999.90;;;999.90;;
17133;SDS011;8682;52.120;5.252;2022-12-07T06:27:15;1999.90;;;999.90;;
17133;SDS011;8682;52.120;5.252;2022-12-07T06:29:42;1999.90;;;999.90;;
17133;SDS011;8682;52.120;5.252;2022-12-07T06:32:10;1999.90;;;999.90;;
17133;SDS011;8682;52.120;5.252;2022-12-07T06:34:37;1999.90;;;999.90;;
17133;SDS011;8682;52.120;5.252;2022-12-07T06:37:05;1999.90;;;999.90;;
17133;SDS011;8682;52.120;5.252;2022-12-07T06:39:32;1999.90;;;999.90;;
17133;SDS011;8682;52.120;5.252;2022-12-07T06:42:00;1999.90;;;999.90;;
17133;SDS011;8682;52.120;5.252;2022-12-07T06:44:27;1999.90;;;999.90;;
17133;SDS011;8682;52.120;5.252;2022-12-07T06:46:55;1999.90;;;999.90;;
17133;SDS011;8682;52.120;5.252;2022-12-07T06:49:22;1999.90;;;999.90;;
17133;SDS011;8682;52.120;5.252;2022-12-07T06:51:49;1999.90;;;999.90;;
17133;SDS011;8682;52.120;5.252;2022-12-07T06:54:17;1999.90;;;999.90;;
17133;SDS011;8682;52.120;5.252;2022-12-07T06:56:44;1999.90;;;999.90;;
17133;SDS011;8682;52.120;5.252;2022-12-07T06:59:13;1999.90;;;999.90;;
17133;SDS011;8682;52.120;5.252;2022-12-07T07:01:40;1999.90;;;999.90;;
17133;SDS011;8682;52.120;5.252;2022-12-07T07:04:07;1999.90;;;999.90;;
17133;SDS011;8682;52.120;5.252;2022-12-07T07:06:34;1999.90;;;999.90;;
17133;SDS011;8682;52.120;5.252;2022-12-07T07:09:01;1999.90;;;999.90;;
17133;SDS011;8682;52.120;5.252;2022-12-07T07:11:28;1999.90;;;999.90;;
17133;SDS011;8682;52.120;5.252;2022-12-07T07:13:56;1999.90;;;999.90;;
17133;SDS011;8682;52.120;5.252;2022-12-07T07:16:28;1999.90;;;999.90;;
17133;SDS011;8682;52.120;5.252;2022-12-07T07:18:56;1999.90;;;999.90;;
17133;SDS011;8682;52.120;5.252;2022-12-07T07:21:24;1999.90;;;999.90;;
17133;SDS011;8682;52.120;5.252;2022-12-07T07:23:51;1999.90;;;999.90;;
17133;SDS011;8682;52.120;5.252;2022-12-07T07:26:18;1999.90;;;999.90;;
17133;SDS011;8682;52.120;5.252;2022-12-07T07:28:45;1999.90;;;999.90;;
17133;SDS011;8682;52.120;5.252;2022-12-07T07:31:12;1999.90;;;999.90;;
17133;SDS011;8682;52.120;5.252;2022-12-07T07:33:41;1999.90;;;999.90;;
17133;SDS011;8682;52.120;5.252;2022-12-07T07:36:08;1999.90;;;999.90;;
17133;SDS011;8682;52.120;5.252;2022-12-07T07:38:35;1641.30;;;708.07;;
17133;SDS011;8682;52.120;5.252;2022-12-07T07:41:03;1538.17;;;709.37;;
17133;SDS011;8682;52.120;5.252;2022-12-07T07:43:30;1297.27;;;511.93;;
17133;SDS011;8682;52.120;5.252;2022-12-07T07:45:57;1518.23;;;686.87;;
17133;SDS011;8682;52.120;5.252;2022-12-07T07:48:24;1490.60;;;659.77;;
17133;SDS011;8682;52.120;5.252;2022-12-07T07:50:53;1130.10;;;454.83;;
17133;SDS011;8682;52.120;5.252;2022-12-07T07:53:20;1007.17;;;409.90;;
17133;SDS011;8682;52.120;5.252;2022-12-07T07:55:50;828.50;;;351.80;;
17133;SDS011;8682;52.120;5.252;2022-12-07T07:58:18;508.77;;;258.80;;
17133;SDS011;8682;52.120;5.252;2022-12-07T08:00:45;640.43;;;305.97;;
17133;SDS011;8682;52.120;5.252;2022-12-07T08:03:12;472.37;;;246.90;;
17133;SDS011;8682;52.120;5.252;2022-12-07T08:05:40;472.13;;;269.93;;
17133;SDS011;8682;52.120;5.252;2022-12-07T08:08:09;452.10;;;248.07;;
17133;SDS011;8682;52.120;5.252;2022-12-07T08:10:36;522.03;;;267.10;;
17133;SDS011;8682;52.120;5.252;2022-12-07T08:13:03;638.93;;;325.73;;
17133;SDS011;8682;52.120;5.252;2022-12-07T08:15:37;542.60;;;272.90;;
17133;SDS011;8682;52.120;5.252;2022-12-07T08:18:04;829.67;;;335.33;;
17133;SDS011;8682;52.120;5.252;2022-12-07T08:20:32;1125.13;;;548.63;;
17133;SDS011;8682;52.120;5.252;2022-12-07T08:23:00;1281.17;;;577.90;;
17133;SDS011;8682;52.120;5.252;2022-12-07T08:25:29;1999.90;;;999.90;;
17133;SDS011;8682;52.120;5.252;2022-12-07T08:27:56;1999.90;;;999.90;;
17133;SDS011;8682;52.120;5.252;2022-12-07T08:30:23;1999.90;;;999.90;;
17133;SDS011;8682;52.120;5.252;2022-12-07T08:32:51;1999.90;;;999.90;;
17133;SDS011;8682;52.120;5.252;2022-12-07T08:35:18;1999.90;;;999.90;;
17133;SDS011;8682;52.120;5.252;2022-12-07T08:37:46;1999.90;;;999.90;;
17133;SDS011;8682;52.120;5.252;2022-12-07T08:40:13;1999.90;;;999.90;;
17133;SDS011;8682;52.120;5.252;2022-12-07T08:42:42;1999.90;;;999.90;;
17133;SDS011;8682;52.120;5.252;2022-12-07T08:45:11;1999.90;;;999.90;;
17133;SDS011;8682;52.120;5.252;2022-12-07T08:47:40;1999.90;;;999.90;;
17133;SDS011;8682;52.120;5.252;2022-12-07T08:50:07;1999.90;;;999.90;;
17133;SDS011;8682;52.120;5.252;2022-12-07T08:52:36;1999.90;;;999.90;;
17133;SDS011;8682;52.120;5.252;2022-12-07T08:55:04;1999.90;;;999.90;;
17133;SDS011;8682;52.120;5.252;2022-12-07T08:57:31;1999.90;;;999.90;;
17133;SDS011;8682;52.120;5.252;2022-12-07T09:00:02;1999.90;;;999.90;;
17133;SDS011;8682;52.120;5.252;2022-12-07T09:02:29;1999.90;;;999.90;;
17133;SDS011;8682;52.120;5.252;2022-12-07T09:04:57;1999.90;;;999.90;;
17133;SDS011;8682;52.120;5.252;2022-12-07T09:07:24;1999.90;;;999.90;;
17133;SDS011;8682;52.120;5.252;2022-12-07T09:09:52;1999.90;;;999.90;;
17133;SDS011;8682;52.120;5.252;2022-12-07T09:12:19;1999.90;;;999.90;;
17133;SDS011;8682;52.120;5.252;2022-12-07T09:14:46;1999.90;;;999.90;;
17133;SDS011;8682;52.120;5.252;2022-12-07T09:17:14;1999.90;;;999.90;;
17133;SDS011;8682;52.120;5.252;2022-12-07T09:19:42;1999.90;;;999.90;;
17133;SDS011;8682;52.120;5.252;2022-12-07T09:22:09;1999.90;;;999.90;;
17133;SDS011;8682;52.120;5.252;2022-12-07T09:24:36;1999.90;;;999.90;;
17133;SDS011;8682;52.120;5.252;2022-12-07T09:27:04;1999.90;;;999.90;;
17133;SDS011;8682;52.120;5.252;2022-12-07T09:29:31;1999.90;;;999.90;;
17133;SDS011;8682;52.120;5.252;2022-12-07T09:31:58;1999.90;;;999.90;;
17133;SDS011;8682;52.120;5.252;2022-12-07T09:34:27;1999.90;;;999.90;;
17133;SDS011;8682;52.120;5.252;2022-12-07T09:36:54;1999.90;;;999.90;;
17133;SDS011;8682;52.120;5.252;2022-12-07T09:39:21;1999.90;;;999.90;;
17133;SDS011;8682;52.120;5.252;2022-12-07T09:41:48;1999.90;;;999.90;;
17133;SDS011;8682;52.120;5.252;2022-12-07T09:44:17;1999.90;;;999.90;;
17133;SDS011;8682;52.120;5.252;2022-12-07T09:46:46;1999.90;;;999.90;;
17133;SDS011;8682;52.120;5.252;2022-12-07T09:49:16;1999.90;;;999.90;;
17133;SDS011;8682;52.120;5.252;2022-12-07T09:51:46;1999.90;;;999.90;;
17133;SDS011;8682;52.120;5.252;2022-12-07T09:54:15;1999.90;;;999.90;;
17133;SDS011;8682;52.120;5.252;2022-12-07T09:56:42;1999.90;;;999.90;;
17133;SDS011;8682;52.120;5.252;2022-12-07T09:59:12;1999.90;;;999.90;;
17133;SDS011;8682;52.120;5.252;2022-12-07T10:01:40;1999.90;;;999.90;;
17133;SDS011;8682;52.120;5.252;2022-12-07T10:04:09;1999.90;;;999.90;;
17133;SDS011;8682;52.120;5.252;2022-12-07T10:06:37;1999.90;;;999.90;;
17133;SDS011;8682;52.120;5.252;2022-12-07T10:09:10;1999.90;;;999.90;;
17133;SDS011;8682;52.120;5.252;2022-12-07T10:14:23;1999.90;;;999.90;;
17133;SDS011;8682;52.120;5.252;2022-12-07T10:16:50;1999.90;;;999.90;;
17133;SDS011;8682;52.120;5.252;2022-12-07T10:19:19;1999.90;;;999.90;;
17133;SDS011;8682;52.120;5.252;2022-12-07T10:21:59;1999.90;;;999.90;;
17133;SDS011;8682;52.120;5.252;2022-12-07T10:24:28;1999.90;;;999.90;;
17133;SDS011;8682;52.120;5.252;2022-12-07T10:26:55;1999.90;;;999.90;;
17133;SDS011;8682;52.120;5.252;2022-12-07T10:29:23;1999.90;;;999.90;;
17133;SDS011;8682;52.120;5.252;2022-12-07T10:31:52;1999.90;;;999.90;;
17133;SDS011;8682;52.120;5.252;2022-12-07T10:34:22;1999.90;;;999.90;;
17133;SDS011;8682;52.120;5.252;2022-12-07T10:36:50;1999.90;;;999.90;;
17133;SDS011;8682;52.120;5.252;2022-12-07T10:39:18;1443.20;;;706.80;;
17133;SDS011;8682;52.120;5.252;2022-12-07T10:41:53;1999.90;;;999.90;;
17133;SDS011;8682;52.120;5.252;2022-12-07T10:44:22;1999.90;;;999.90;;
17133;SDS011;8682;52.120;5.252;2022-12-07T10:46:52;1999.90;;;999.90;;
17133;SDS011;8682;52.120;5.252;2022-12-07T10:52:10;1999.90;;;999.90;;
17133;SDS011;8682;52.120;5.252;2022-12-07T10:54:43;1999.90;;;999.90;;
17133;SDS011;8682;52.120;5.252;2022-12-07T10:57:19;1999.90;;;999.90;;
17133;SDS011;8682;52.120;5.252;2022-12-07T11:02:34;1999.90;;;999.90;;
17133;SDS011;8682;52.120;5.252;2022-12-07T11:05:06;1999.90;;;999.90;;
17133;SDS011;8682;52.120;5.252;2022-12-07T11:07:41;1999.90;;;999.90;;
17133;SDS011;8682;52.120;5.252;2022-12-07T11:10:12;1999.90;;;999.90;;
17133;SDS011;8682;52.120;5.252;2022-12-07T11:12:46;1999.90;;;999.90;;
17133;SDS011;8682;52.120;5.252;2022-12-07T11:15:16;1999.90;;;999.90;;
17133;SDS011;8682;52.120;5.252;2022-12-07T11:17:46;1999.90;;;999.90;;
17133;SDS011;8682;52.120;5.252;2022-12-07T11:20:20;1999.90;;;999.90;;
17133;SDS011;8682;52.120;5.252;2022-12-07T11:22:50;1441.87;;;727.00;;
17133;SDS011;8682;52.120;5.252;2022-12-07T11:25:22;1999.90;;;999.90;;
17133;SDS011;8682;52.120;5.252;2022-12-07T11:28:02;1999.90;;;999.90;;
17133;SDS011;8682;52.120;5.252;2022-12-07T11:30:32;1999.90;;;999.90;;
17133;SDS011;8682;52.120;5.252;2022-12-07T11:33:04;1999.90;;;999.90;;
17133;SDS011;8682;52.120;5.252;2022-12-07T11:35:38;1999.90;;;999.90;;
17133;SDS011;8682;52.120;5.252;2022-12-07T11:38:11;1999.90;;;999.90;;
17133;SDS011;8682;52.120;5.252;2022-12-07T11:40:39;1999.90;;;999.90;;
17133;SDS011;8682;52.120;5.252;2022-12-07T11:43:12;1999.90;;;999.90;;
17133;SDS011;8682;52.120;5.252;2022-12-07T11:45:41;1999.90;;;999.90;;
17133;SDS011;8682;52.120;5.252;2022-12-07T11:48:10;1417.80;;;693.63;;
17133;SDS011;8682;52.120;5.252;2022-12-07T11:50:40;1999.90;;;999.90;;
17133;SDS011;8682;52.120;5.252;2022-12-07T11:53:10;1999.90;;;999.90;;
17133;SDS011;8682;52.120;5.252;2022-12-07T11:55:42;1999.90;;;999.90;;
17133;SDS011;8682;52.120;5.252;2022-12-07T11:58:28;1999.90;;;999.90;;
17133;SDS011;8682;52.120;5.252;2022-12-07T12:01:00;1497.97;;;720.00;;
17133;SDS011;8682;52.120;5.252;2022-12-07T12:03:30;1999.90;;;999.90;;
17133;SDS011;8682;52.120;5.252;2022-12-07T12:06:00;1999.90;;;999.90;;
17133;SDS011;8682;52.120;5.252;2022-12-07T12:08:28;1999.90;;;999.90;;
17133;SDS011;8682;52.120;5.252;2022-12-07T12:11:00;1999.90;;;999.90;;
17133;SDS011;8682;52.120;5.252;2022-12-07T12:13:43;1999.90;;;999.90;;
17133;SDS011;8682;52.120;5.252;2022-12-07T12:16:19;1999.90;;;999.90;;
17133;SDS011;8682;52.120;5.252;2022-12-07T12:18:51;1999.90;;;999.90;;
17133;SDS011;8682;52.120;5.252;2022-12-07T12:21:22;1999.90;;;999.90;;
17133;SDS011;8682;52.120;5.252;2022-12-07T12:23:54;1999.90;;;999.90;;
17133;SDS011;8682;52.120;5.252;2022-12-07T12:26:23;1999.90;;;999.90;;
17133;SDS011;8682;52.120;5.252;2022-12-07T12:28:52;1999.90;;;999.90;;
17133;SDS011;8682;52.120;5.252;2022-12-07T12:31:37;1999.90;;;999.90;;
17133;SDS011;8682;52.120;5.252;2022-12-07T12:36:51;1999.90;;;999.90;;
17133;SDS011;8682;52.120;5.252;2022-12-07T12:39:19;1999.90;;;999.90;;
17133;SDS011;8682;52.120;5.252;2022-12-07T12:41:57;1999.90;;;999.90;;
17133;SDS011;8682;52.120;5.252;2022-12-07T12:44:43;1999.90;;;999.90;;
17133;SDS011;8682;52.120;5.252;2022-12-07T12:47:39;1999.90;;;999.90;;
17133;SDS011;8682;52.120;5.252;2022-12-07T12:50:17;1999.90;;;999.90;;
17133;SDS011;8682;52.120;5.252;2022-12-07T12:52:49;1999.90;;;999.90;;
17133;SDS011;8682;52.120;5.252;2022-12-07T12:55:19;1433.20;;;730.17;;
17133;SDS011;8682;52.120;5.252;2022-12-07T12:57:47;1999.90;;;999.90;;
17133;SDS011;8682;52.120;5.252;2022-12-07T13:00:17;1999.90;;;999.90;;
17133;SDS011;8682;52.120;5.252;2022-12-07T13:02:47;1459.67;;;735.87;;
17133;SDS011;8682;52.120;5.252;2022-12-07T13:05:16;1999.90;;;999.90;;
17133;SDS011;8682;52.120;5.252;2022-12-07T13:07:57;1999.90;;;999.90;;
17133;SDS011;8682;52.120;5.252;2022-12-07T13:13:29;1999.90;;;999.90;;
17133;SDS011;8682;52.120;5.252;2022-12-07T13:18:41;1999.90;;;735.03;;
17133;SDS011;8682;52.120;5.252;2022-12-07T13:23:54;1884.40;;;778.00;;
17133;SDS011;8682;52.120;5.252;2022-12-07T13:26:22;1999.90;;;999.90;;
17133;SDS011;8682;52.120;5.252;2022-12-07T13:28:51;1999.90;;;999.90;;
17133;SDS011;8682;52.120;5.252;2022-12-07T13:31:19;1999.90;;;999.90;;
17133;SDS011;8682;52.120;5.252;2022-12-07T13:33:51;1999.90;;;999.90;;
17133;SDS011;8682;52.120;5.252;2022-12-07T13:36:20;1999.90;;;999.90;;
17133;SDS011;8682;52.120;5.252;2022-12-07T13:38:49;1999.90;;;999.90;;
17133;SDS011;8682;52.120;5.252;2022-12-07T13:41:17;1999.90;;;999.90;;
17133;SDS011;8682;52.120;5.252;2022-12-07T13:43:46;1999.90;;;999.90;;
17133;SDS011;8682;52.120;5.252;2022-12-07T13:46:14;1999.90;;;999.90;;
17133;SDS011;8682;52.120;5.252;2022-12-07T13:48:44;1531.20;;;717.47;;
17133;SDS011;8682;52.120;5.252;2022-12-07T13:51:18;1999.90;;;999.90;;
17133;SDS011;8682;52.120;5.252;2022-12-07T13:53:47;1999.90;;;999.90;;
17133;SDS011;8682;52.120;5.252;2022-12-07T13:56:14;1537.37;;;734.50;;
17133;SDS011;8682;52.120;5.252;2022-12-07T13:58:42;1999.90;;;999.90;;
17133;SDS011;8682;52.120;5.252;2022-12-07T14:01:09;1999.90;;;999.90;;
17133;SDS011;8682;52.120;5.252;2022-12-07T14:03:38;1999.90;;;999.90;;
17133;SDS011;8682;52.120;5.252;2022-12-07T14:06:13;1999.90;;;999.90;;
17133;SDS011;8682;52.120;5.252;2022-12-07T14:08:43;1999.90;;;999.90;;
17133;SDS011;8682;52.120;5.252;2022-12-07T14:11:12;1999.90;;;999.90;;
17133;SDS011;8682;52.120;5.252;2022-12-07T14:13:44;1999.90;;;999.90;;
17133;SDS011;8682;52.120;5.252;2022-12-07T14:16:18;1999.90;;;999.90;;
17133;SDS011;8682;52.120;5.252;2022-12-07T14:18:46;1999.90;;;999.90;;
17133;SDS011;8682;52.120;5.252;2022-12-07T14:21:14;1999.90;;;999.90;;
17133;SDS011;8682;52.120;5.252;2022-12-07T14:23:45;1593.37;;;740.17;;
17133;SDS011;8682;52.120;5.252;2022-12-07T14:26:29;1999.90;;;999.90;;
17133;SDS011;8682;52.120;5.252;2022-12-07T14:29:10;1999.90;;;999.90;;